Time;durP1;ratioP1;P1;durP2;ratioP2;P2;SDS_P1;SDS_P2;PMS_P1;PMS_P2;Temp;Humidity;BMP_temperature;BMP_pressure;BME280_temperature;BME280_humidity;BME280_pressure;Samples;Min_cycle;Max_cycle;Signal;HPM_P1;HPM_P2
2023/05/04 04:01:14;;;;;;;1.38;1.13;;;5.40;99.90;;;;;;5636644;23;20234;-71
2023/05/04 04:03:41;;;;;;;0.95;0.95;;;5.40;99.90;;;;;;5009990;28;20204;-72
2023/05/04 04:06:09;;;;;;;0.70;0.70;;;5.50;99.90;;;;;;5012071;28;20466;-71
2023/05/04 04:08:36;;;;;;;1.17;1.17;;;5.50;99.90;;;;;;5011438;28;20326;-71
2023/05/04 04:11:03;;;;;;;2.58;2.35;;;5.50;99.90;;;;;;5011314;28;20568;-71
2023/05/04 04:13:30;;;;;;;1.52;1.48;;;5.50;99.90;;;;;;5011099;28;20689;-71
2023/05/04 04:15:56;;;;;;;1.88;1.88;;;5.60;99.90;;;;;;5034439;23;20318;-69
2023/05/04 04:18:24;;;;;;;1.92;1.83;;;5.60;99.90;;;;;;5011304;28;20285;-69
2023/05/04 04:20:51;;;;;;;1.83;1.65;;;5.70;99.90;;;;;;5011442;28;20203;-69
2023/05/04 04:23:18;;;;;;;1.13;0.65;;;5.70;99.90;;;;;;5010463;28;20302;-69
2023/05/04 04:25:45;;;;;;;0.63;0.63;;;5.70;99.90;;;;;;5011743;28;20703;-69
2023/05/04 04:28:12;;;;;;;2.95;1.85;;;5.70;99.90;;;;;;5011475;28;20238;-69
2023/05/04 04:30:40;;;;;;;2.55;2.45;;;5.80;99.90;;;;;;5010634;28;20225;-69
2023/05/04 04:33:07;;;;;;;2.47;2.38;;;5.80;99.90;;;;;;5010359;28;20297;-70
2023/05/04 04:35:35;;;;;;;0.95;0.80;;;5.80;99.90;;;;;;5010351;28;20574;-69
2023/05/04 04:38:02;;;;;;;1.38;1.38;;;6.10;99.90;;;;;;5010221;28;20199;-69
2023/05/04 04:40:29;;;;;;;2.10;2.10;;;6.50;99.90;;;;;;5010588;28;20238;-70
2023/05/04 04:42:56;;;;;;;3.40;3.17;;;6.90;99.90;;;;;;5009805;28;20221;-69
2023/05/04 04:45:23;;;;;;;8.48;2.78;;;7.30;99.90;;;;;;5009946;28;20293;-69
2023/05/04 04:47:49;;;;;;;2.33;2.28;;;7.70;99.90;;;;;;5010235;28;20226;-69
2023/05/04 04:50:16;;;;;;;2.42;2.33;;;8.00;99.90;;;;;;5010059;28;20215;-69
2023/05/04 04:52:44;;;;;;;2.80;2.60;;;8.40;99.90;;;;;;5009244;28;20212;-69
2023/05/04 04:55:12;;;;;;;14.00;2.10;;;8.90;99.90;;;;;;5009408;28;20219;-69
2023/05/04 04:57:38;;;;;;;2.40;1.45;;;9.40;99.90;;;;;;5009413;28;20210;-69
2023/05/04 05:00:08;;;;;;;1.73;1.73;;;9.90;99.90;;;;;;5010237;28;20218;-69
2023/05/04 05:02:35;;;;;;;2.30;1.50;;;10.10;99.90;;;;;;5009195;28;20516;-69
2023/05/04 05:05:02;;;;;;;1.40;1.30;;;10.10;99.90;;;;;;5009489;28;20486;-70
2023/05/04 05:07:28;;;;;;;1.65;1.65;;;9.70;99.90;;;;;;5010014;28;20469;-68
2023/05/04 05:09:57;;;;;;;1.40;1.30;;;9.40;99.90;;;;;;5009339;28;20588;-69
2023/05/04 05:12:23;;;;;;;0.90;0.90;;;9.20;99.90;;;;;;5009224;28;20586;-69
2023/05/04 05:14:50;;;;;;;0.80;0.80;;;9.00;99.90;;;;;;5009341;28;20238;-70
2023/05/04 05:17:17;;;;;;;3.05;1.52;;;8.90;99.90;;;;;;5009815;28;20230;-69
2023/05/04 05:19:45;;;;;;;1.52;1.52;;;8.80;99.90;;;;;;5009804;28;20207;-69
2023/05/04 05:22:12;;;;;;;2.72;1.30;;;8.80;99.90;;;;;;5009640;28;20348;-69
2023/05/04 05:24:39;;;;;;;6.63;1.77;;;8.70;99.90;;;;;;5008735;28;20209;-70
2023/05/04 05:27:07;;;;;;;3.88;1.70;;;8.60;99.90;;;;;;5009404;28;20210;-70
2023/05/04 05:29:34;;;;;;;2.15;1.40;;;8.70;99.90;;;;;;5010038;28;20235;-70
2023/05/04 05:32:01;;;;;;;1.05;1.05;;;8.70;99.90;;;;;;5010192;28;20298;-70
2023/05/04 05:34:27;;;;;;;1.40;1.15;;;8.80;99.90;;;;;;5009357;28;20206;-69
2023/05/04 05:36:54;;;;;;;2.78;2.42;;;8.80;99.90;;;;;;5010023;28;20214;-69
2023/05/04 05:39:21;;;;;;;2.17;2.08;;;8.80;99.90;;;;;;5009445;28;20220;-70
2023/05/04 05:41:47;;;;;;;0.80;0.80;;;8.80;99.90;;;;;;5009724;28;20214;-70
2023/05/04 05:44:15;;;;;;;1.02;1.02;;;8.80;99.90;;;;;;5009281;28;20242;-70
2023/05/04 05:46:42;;;;;;;1.27;1.27;;;8.90;99.90;;;;;;5009812;28;20227;-71
2023/05/04 05:49:09;;;;;;;0.80;0.80;;;8.90;99.90;;;;;;5009841;28;20230;-71
2023/05/04 05:51:36;;;;;;;0.82;0.82;;;9.00;99.90;;;;;;5009818;28;20203;-71
2023/05/04 05:54:02;;;;;;;1.27;1.27;;;9.10;99.90;;;;;;5009211;28;20222;-72
2023/05/04 05:56:29;;;;;;;2.38;2.28;;;9.20;99.90;;;;;;5009697;28;20632;-72
2023/05/04 05:58:56;;;;;;;0.80;0.80;;;9.30;99.90;;;;;;5010020;28;20207;-72
2023/05/04 06:01:25;;;;;;;2.42;2.22;;;9.50;99.90;;;;;;5008725;28;20203;-72
2023/05/04 06:03:52;;;;;;;2.33;1.35;;;10.00;99.90;;;;;;5009565;28;20203;-72
2023/05/04 06:06:19;;;;;;;1.93;1.83;;;10.70;99.90;;;;;;5013268;28;20293;-73
2023/05/04 06:08:45;;;;;;;6.50;0.70;;;11.30;99.90;;;;;;5013024;28;21037;-74
2023/05/04 06:11:12;;;;;;;1.47;1.37;;;11.90;99.90;;;;;;5013166;28;20476;-73
2023/05/04 06:13:39;;;;;;;6.13;1.77;;;12.30;99.90;;;;;;5013026;28;20561;-73
2023/05/04 06:16:06;;;;;;;0.93;0.93;;;12.80;99.90;;;;;;5013166;28;20862;-73
2023/05/04 06:18:34;;;;;;;1.60;1.60;;;13.20;99.90;;;;;;5013207;28;20462;-72
2023/05/04 06:21:01;;;;;;;1.47;1.33;;;13.50;99.90;;;;;;5013041;28;20465;-72
2023/05/04 06:23:28;;;;;;;1.30;1.30;;;13.70;99.90;;;;;;5012429;28;20927;-73
2023/05/04 06:25:55;;;;;;;2.73;0.57;;;13.90;99.90;;;;;;5012843;28;20660;-74
2023/05/04 06:28:22;;;;;;;0.97;0.87;;;14.20;99.90;;;;;;5013216;28;20962;-74
2023/05/04 06:30:48;;;;;;;0.87;0.87;;;14.30;99.90;;;;;;5013325;28;20473;-73
2023/05/04 06:33:16;;;;;;;0.80;0.80;;;14.60;99.90;;;;;;5013034;28;20813;-73
2023/05/04 06:35:44;;;;;;;0.57;0.57;;;14.70;99.90;;;;;;5013075;28;20639;-73
2023/05/04 06:38:11;;;;;;;1.10;1.10;;;14.80;99.90;;;;;;5012981;28;20557;-74
2023/05/04 06:40:37;;;;;;;0.53;0.53;;;14.70;99.90;;;;;;5013106;28;20879;-73
2023/05/04 06:43:05;;;;;;;1.53;0.70;;;14.50;99.90;;;;;;5012495;28;20857;-73
2023/05/04 06:45:34;;;;;;;0.50;0.50;;;14.30;99.90;;;;;;5012345;28;21037;-73
2023/05/04 06:48:01;;;;;;;1.27;1.27;;;13.90;99.90;;;;;;5012440;28;20461;-73
2023/05/04 06:50:28;;;;;;;1.60;0.67;;;14.30;99.90;;;;;;5012871;28;20584;-73
2023/05/04 06:53:04;;;;;;;4.87;1.00;;;14.70;99.90;;;;;;5012436;28;20550;-73
2023/05/04 06:55:31;;;;;;;3.23;1.70;;;15.00;99.90;;;;;;5012543;28;20485;-73
2023/05/04 06:57:58;;;;;;;0.63;0.63;;;15.10;99.90;;;;;;5012117;28;20882;-73
2023/05/04 07:00:25;;;;;;;0.60;0.53;;;15.20;99.90;;;;;;5012432;28;20545;-73
2023/05/04 07:02:52;;;;;;;1.20;1.20;;;15.20;99.90;;;;;;5011143;28;20951;-72
2023/05/04 07:05:19;;;;;;;0.60;0.60;;;15.30;99.90;;;;;;5012117;28;20513;-72
2023/05/04 07:07:46;;;;;;;0.60;0.60;;;15.10;99.90;;;;;;5011950;28;20512;-72
2023/05/04 07:10:14;;;;;;;1.17;1.00;;;15.00;99.90;;;;;;5012328;28;20516;-73
2023/05/04 07:12:41;;;;;;;0.77;0.77;;;15.20;99.90;;;;;;5011705;28;20462;-72
2023/05/04 07:15:09;;;;;;;0.60;0.60;;;15.40;99.90;;;;;;5010969;28;20494;-72
2023/05/04 07:17:36;;;;;;;0.67;0.50;;;15.40;99.90;;;;;;5012207;28;20466;-73
2023/05/04 07:20:03;;;;;;;0.87;0.87;;;15.40;99.90;;;;;;5012119;28;20534;-72
2023/05/04 07:22:31;;;;;;;1.30;1.20;;;15.30;99.90;;;;;;5012291;28;20466;-72
2023/05/04 07:24:58;;;;;;;0.70;0.70;;;15.10;99.90;;;;;;5011308;28;20481;-71
2023/05/04 07:27:26;;;;;;;1.60;0.73;;;15.20;99.90;;;;;;5011349;28;20466;-72
2023/05/04 07:29:53;;;;;;;0.87;0.87;;;15.30;99.90;;;;;;5012188;28;20481;-72
2023/05/04 07:32:20;;;;;;;1.60;0.70;;;15.20;99.90;;;;;;5012533;28;20454;-74
2023/05/04 07:34:46;;;;;;;3.03;0.90;;;14.90;99.90;;;;;;5011319;28;20482;-73
2023/05/04 07:37:14;;;;;;;2.53;0.93;;;14.60;99.90;;;;;;5011788;28;20469;-72
2023/05/04 07:39:41;;;;;;;0.37;0.37;;;14.40;99.90;;;;;;5011329;28;20457;-73
2023/05/04 07:42:10;;;;;;;1.80;1.20;;;14.30;99.90;;;;;;5011000;28;20521;-73
2023/05/04 07:44:38;;;;;;;1.80;0.50;;;14.10;99.90;;;;;;5011055;28;20549;-74
2023/05/04 07:47:05;;;;;;;0.60;0.60;;;14.20;99.90;;;;;;5011626;28;20940;-72
2023/05/04 07:49:32;;;;;;;0.43;0.40;;;14.20;99.90;;;;;;5011275;28;20512;-73
2023/05/04 07:51:59;;;;;;;1.10;1.10;;;14.20;99.90;;;;;;5011464;28;20469;-72
2023/05/04 07:54:26;;;;;;;2.10;1.27;;;14.20;99.90;;;;;;5010262;28;20476;-74
2023/05/04 07:56:53;;;;;;;2.33;1.73;;;14.30;99.90;;;;;;5010817;28;20465;-72
2023/05/04 07:59:20;;;;;;;1.27;1.27;;;14.50;99.90;;;;;;5011710;28;20929;-73
2023/05/04 08:01:48;;;;;;;1.40;1.40;;;14.50;99.90;;;;;;5010890;28;20466;-73
2023/05/04 08:04:15;;;;;;;1.70;1.50;;;14.60;99.90;;;;;;5010493;28;20470;-73
2023/05/04 08:06:42;;;;;;;6.43;0.73;;;14.60;99.90;;;;;;5011101;28;20481;-72
2023/05/04 08:09:08;;;;;;;0.70;0.70;;;14.50;99.90;;;;;;5010563;28;20847;-73
2023/05/04 08:11:36;;;;;;;1.07;0.70;;;14.40;99.90;;;;;;5010677;28;20792;-73
2023/05/04 08:14:03;;;;;;;1.93;0.67;;;14.50;99.90;;;;;;5010554;28;20466;-72
2023/05/04 08:16:30;;;;;;;1.07;1.03;;;14.60;99.90;;;;;;5010875;28;20845;-73
2023/05/04 08:18:59;;;;;;;0.70;0.70;;;14.70;99.90;;;;;;5010935;28;20469;-74
2023/05/04 08:21:27;;;;;;;1.10;1.10;;;14.80;99.90;;;;;;5011254;28;20465;-73
2023/05/04 08:23:54;;;;;;;2.53;0.97;;;15.00;99.90;;;;;;5010131;28;20474;-72
2023/05/04 08:26:20;;;;;;;1.60;1.17;;;14.90;99.90;;;;;;5010515;28;20874;-72
2023/05/04 08:28:47;;;;;;;0.50;0.50;;;14.90;99.90;;;;;;5010080;28;20480;-73
2023/05/04 08:31:14;;;;;;;0.70;0.70;;;14.90;99.90;;;;;;5010887;28;20508;-72
2023/05/04 08:33:41;;;;;;;2.83;0.93;;;14.90;99.90;;;;;;5010339;28;20473;-73
2023/05/04 08:36:09;;;;;;;0.70;0.70;;;14.90;99.90;;;;;;5010699;28;21021;-73
2023/05/04 08:38:36;;;;;;;0.87;0.87;;;15.00;99.90;;;;;;5010174;28;20520;-71
2023/05/04 08:41:03;;;;;;;1.57;0.90;;;15.20;99.90;;;;;;5010533;28;20792;-73
2023/05/04 08:43:30;;;;;;;0.37;0.37;;;15.10;99.90;;;;;;5010586;28;20462;-73
2023/05/04 08:45:57;;;;;;;1.33;0.90;;;15.10;99.90;;;;;;5011082;28;20482;-73
2023/05/04 08:48:24;;;;;;;2.67;1.53;;;15.00;99.90;;;;;;5010379;28;20562;-73
2023/05/04 08:50:51;;;;;;;0.90;0.83;;;15.00;99.90;;;;;;5010440;28;20527;-72
2023/05/04 08:53:21;;;;;;;0.60;0.60;;;15.10;99.90;;;;;;5009652;28;20962;-73
2023/05/04 08:55:51;;;;;;;1.13;1.10;;;15.20;99.90;;;;;;5010695;28;20486;-74
2023/05/04 08:58:20;;;;;;;7.33;1.53;;;15.40;99.90;;;;;;5010719;28;20473;-74
2023/05/04 09:00:47;;;;;;;1.70;1.03;;;15.40;99.90;;;;;;5009219;28;20492;-73
2023/05/04 09:03:15;;;;;;;1.30;1.30;;;15.40;99.90;;;;;;5010314;28;20465;-74
2023/05/04 09:05:42;;;;;;;1.37;0.60;;;15.30;99.90;;;;;;5010761;28;20477;-73
2023/05/04 09:08:09;;;;;;;0.83;0.83;;;15.30;99.90;;;;;;5010379;28;20829;-74
2023/05/04 09:10:37;;;;;;;0.50;0.50;;;15.40;99.90;;;;;;5010419;28;20488;-74
2023/05/04 09:13:04;;;;;;;0.83;0.83;;;15.40;99.90;;;;;;5010296;28;20485;-74
2023/05/04 09:15:31;;;;;;;0.70;0.70;;;15.50;99.90;;;;;;5010642;28;20505;-74
2023/05/04 09:18:01;;;;;;;0.80;0.80;;;15.60;99.90;;;;;;5010732;28;20462;-74
2023/05/04 09:20:28;;;;;;;1.57;0.70;;;15.50;99.90;;;;;;5011217;28;20519;-74
2023/05/04 09:23:03;;;;;;;1.27;0.50;;;15.60;99.90;;;;;;5010542;28;20936;-74
2023/05/04 09:25:29;;;;;;;0.73;0.73;;;15.60;99.90;;;;;;5010179;28;20481;-74
2023/05/04 09:27:58;;;;;;;1.17;1.17;;;15.60;99.90;;;;;;5010397;28;20499;-74
2023/05/04 09:30:25;;;;;;;0.57;0.57;;;15.70;99.90;;;;;;5011175;28;20481;-73
2023/05/04 09:32:52;;;;;;;0.67;0.67;;;15.80;99.90;;;;;;5010816;28;20506;-73
2023/05/04 09:35:28;;;;;;;1.13;1.13;;;15.80;99.90;;;;;;5009924;28;20544;-73
2023/05/04 09:37:55;;;;;;;2.00;1.47;;;15.90;99.90;;;;;;5009855;28;20469;-73
2023/05/04 09:40:31;;;;;;;1.00;0.97;;;15.90;99.90;;;;;;5013931;28;20549;-73
2023/05/04 09:42:59;;;;;;;0.47;0.47;;;16.00;99.90;;;;;;5013591;28;20476;-73
2023/05/04 09:45:28;;;;;;;1.07;0.80;;;16.00;99.90;;;;;;5013847;28;20481;-73
2023/05/04 09:47:56;;;;;;;0.50;0.50;;;16.00;99.90;;;;;;5013836;28;20462;-73
2023/05/04 09:50:24;;;;;;;0.87;0.40;;;16.10;99.90;;;;;;5014005;28;20490;-73
2023/05/04 09:52:51;;;;;;;0.97;0.97;;;16.20;99.90;;;;;;5013693;28;20472;-74
2023/05/04 09:55:19;;;;;;;0.70;0.70;;;16.20;99.90;;;;;;5014760;28;20572;-73
2023/05/04 09:57:47;;;;;;;1.33;0.97;;;16.40;99.90;;;;;;5015504;28;20461;-72
2023/05/04 10:00:17;;;;;;;0.90;0.90;;;16.40;99.90;;;;;;5016173;28;20462;-73
2023/05/04 10:02:45;;;;;;;1.07;1.03;;;16.40;99.90;;;;;;5014250;28;20465;-73
2023/05/04 10:05:15;;;;;;;0.93;0.57;;;16.50;99.60;;;;;;5015570;28;20497;-73
2023/05/04 10:07:43;;;;;;;0.80;0.70;;;16.50;98.80;;;;;;5015555;28;20526;-73
2023/05/04 10:10:12;;;;;;;0.90;0.90;;;16.70;99.00;;;;;;5016682;28;20492;-73
2023/05/04 10:12:38;;;;;;;0.63;0.63;;;16.70;99.00;;;;;;5014721;28;20461;-72
2023/05/04 10:15:07;;;;;;;2.87;0.67;;;16.60;98.90;;;;;;5034225;23;20460;-73
2023/05/04 10:17:49;;;;;;;0.80;0.80;;;16.60;99.30;;;;;;4996607;28;20510;-74
2023/05/04 10:20:30;;;;;;;1.70;1.20;;;16.70;98.90;;;;;;4996554;28;20462;-72
2023/05/04 10:23:24;;;;;;;0.50;0.50;;;16.70;99.60;;;;;;4995185;28;20859;-73
2023/05/04 10:26:23;;;;;;;0.60;0.60;;;16.60;98.70;;;;;;4996629;28;20482;-74
2023/05/04 10:29:05;;;;;;;6.40;0.97;;;16.60;99.20;;;;;;4994952;28;20463;-73
2023/05/04 10:31:39;;;;;;;1.30;1.30;;;16.70;99.30;;;;;;4994588;28;20494;-73
2023/05/04 10:34:08;;;;;;;0.83;0.83;;;16.60;99.10;;;;;;4994267;28;20473;-73
2023/05/04 10:36:39;;;;;;;0.60;0.60;;;16.70;99.10;;;;;;4994682;28;20510;-73
2023/05/04 10:39:18;;;;;;;0.50;0.50;;;16.80;99.10;;;;;;4994057;28;20943;-74
2023/05/04 10:42:00;;;;;;;0.73;0.73;;;16.80;99.20;;;;;;4995160;28;20470;-73
2023/05/04 10:44:27;;;;;;;0.77;0.63;;;16.80;98.90;;;;;;4994569;28;20862;-71
2023/05/04 10:47:02;;;;;;;6.60;0.80;;;16.80;98.70;;;;;;4994494;28;20533;-71
2023/05/04 10:49:30;;;;;;;0.93;0.93;;;16.90;98.70;;;;;;4994876;28;20466;-72
2023/05/04 10:52:07;;;;;;;0.80;0.80;;;16.90;98.70;;;;;;4993794;28;20820;-72
2023/05/04 10:54:35;;;;;;;0.63;0.63;;;17.00;98.70;;;;;;4993983;28;20598;-74
2023/05/04 10:57:05;;;;;;;0.73;0.73;;;17.10;98.50;;;;;;4993967;28;20483;-72
2023/05/04 10:59:32;;;;;;;0.77;0.77;;;17.20;98.80;;;;;;4994142;28;20467;-71
2023/05/04 11:02:00;;;;;;;0.60;0.60;;;17.20;98.20;;;;;;5000568;28;20950;-72
2023/05/04 11:04:27;;;;;;;1.07;0.97;;;17.20;97.80;;;;;;4993000;28;20947;-72
2023/05/04 11:07:00;;;;;;;2.87;0.90;;;17.30;98.60;;;;;;4993904;28;20483;-72
2023/05/04 11:09:27;;;;;;;2.37;0.90;;;17.40;98.10;;;;;;4993247;28;20470;-74
2023/05/04 11:11:55;;;;;;;0.73;0.73;;;17.20;98.10;;;;;;4993047;28;21142;-71
2023/05/04 11:14:26;;;;;;;0.70;0.70;;;17.30;98.00;;;;;;4993224;28;20478;-71
2023/05/04 11:16:53;;;;;;;1.10;1.10;;;17.40;98.00;;;;;;4993456;28;20494;-71
2023/05/04 11:19:20;;;;;;;0.47;0.47;;;17.40;97.40;;;;;;4993691;28;20463;-72
2023/05/04 11:21:47;;;;;;;0.30;0.30;;;17.40;96.80;;;;;;4993534;28;20558;-74
2023/05/04 11:24:15;;;;;;;0.70;0.70;;;17.40;97.20;;;;;;4992647;28;20977;-71
2023/05/04 11:26:46;;;;;;;0.70;0.70;;;17.40;96.90;;;;;;4992780;28;20963;-72
2023/05/04 11:29:13;;;;;;;0.83;0.60;;;17.30;97.50;;;;;;4992976;28;20463;-72
2023/05/04 11:31:40;;;;;;;2.73;0.90;;;17.20;97.20;;;;;;4993040;28;20541;-72
2023/05/04 11:34:07;;;;;;;1.13;0.93;;;17.20;97.00;;;;;;4992822;28;20952;-71
2023/05/04 11:36:37;;;;;;;0.60;0.57;;;17.20;97.10;;;;;;4993946;28;20573;-73
2023/05/04 11:39:05;;;;;;;0.50;0.50;;;17.30;97.40;;;;;;4994025;28;20828;-73
2023/05/04 11:41:35;;;;;;;0.70;0.70;;;17.30;96.90;;;;;;4993115;28;20462;-72
2023/05/04 11:44:03;;;;;;;2.30;0.50;;;17.30;96.70;;;;;;4993425;28;20510;-73
2023/05/04 11:46:33;;;;;;;0.83;0.83;;;17.30;96.60;;;;;;4993256;28;20486;-73
2023/05/04 11:49:00;;;;;;;1.23;0.40;;;17.30;96.40;;;;;;4993007;28;20469;-72
2023/05/04 11:51:28;;;;;;;1.43;1.43;;;17.20;96.50;;;;;;4992830;28;20522;-72
2023/05/04 11:53:55;;;;;;;6.43;0.73;;;17.30;96.80;;;;;;4991812;28;20581;-73
2023/05/04 11:56:23;;;;;;;0.50;0.50;;;17.30;96.50;;;;;;4992106;28;20541;-72
2023/05/04 11:58:51;;;;;;;2.73;0.70;;;17.40;96.50;;;;;;4993128;28;20474;-72
2023/05/04 12:01:17;;;;;;;0.67;0.53;;;17.50;96.00;;;;;;4996607;28;20473;-72
2023/05/04 12:03:45;;;;;;;0.60;0.60;;;17.60;95.50;;;;;;4993796;28;20473;-72
2023/05/04 12:06:12;;;;;;;0.83;0.77;;;17.70;95.50;;;;;;4992447;28;20517;-73
2023/05/04 12:08:41;;;;;;;1.30;0.90;;;17.80;95.20;;;;;;4992195;28;20803;-72
2023/05/04 12:11:09;;;;;;;1.07;0.80;;;17.90;95.20;;;;;;4992026;28;20557;-74
2023/05/04 12:13:36;;;;;;;0.57;0.57;;;18.00;95.10;;;;;;4992329;28;20506;-74
2023/05/04 12:16:14;;;;;;;2.60;2.47;;;18.00;95.30;;;;;;4992304;28;20837;-72
2023/05/04 12:18:41;;;;;;;1.17;1.17;;;18.00;95.10;;;;;;4992383;28;20554;-73
2023/05/04 12:21:10;;;;;;;1.53;1.43;;;18.10;94.90;;;;;;4992547;28;20532;-71
2023/05/04 12:23:36;;;;;;;3.90;1.63;;;18.30;94.70;;;;;;4991296;28;20532;-74
2023/05/04 12:26:03;;;;;;;3.47;1.20;;;18.30;94.50;;;;;;4991538;28;20494;-72
2023/05/04 12:28:30;;;;;;;0.80;0.80;;;18.30;95.10;;;;;;4992621;28;20459;-71
2023/05/04 12:30:58;;;;;;;0.80;0.80;;;18.40;94.50;;;;;;4992017;28;20487;-72
2023/05/04 12:33:26;;;;;;;2.00;0.80;;;18.40;93.90;;;;;;4991412;28;20888;-72
2023/05/04 12:35:53;;;;;;;0.97;0.97;;;18.40;94.80;;;;;;4991940;28;20533;-71
2023/05/04 12:38:20;;;;;;;0.70;0.70;;;18.40;94.90;;;;;;4991863;28;20463;-71
2023/05/04 12:40:47;;;;;;;0.53;0.53;;;18.40;95.10;;;;;;4991785;28;20947;-72
2023/05/04 12:43:14;;;;;;;2.83;1.90;;;18.30;93.80;;;;;;4991434;28;20552;-72
2023/05/04 12:45:41;;;;;;;2.63;0.70;;;18.30;94.60;;;;;;4991950;28;20502;-74
2023/05/04 12:48:07;;;;;;;2.30;1.17;;;18.40;94.80;;;;;;4991816;28;20963;-72
2023/05/04 12:50:35;;;;;;;3.80;1.40;;;18.40;94.20;;;;;;4991665;28;20490;-72
2023/05/04 12:53:03;;;;;;;8.30;0.90;;;18.40;94.20;;;;;;4991384;28;20474;-72
2023/05/04 12:55:30;;;;;;;0.83;0.83;;;18.20;94.10;;;;;;4991708;28;20836;-72
2023/05/04 12:57:56;;;;;;;0.93;0.80;;;18.20;94.30;;;;;;4991203;28;20899;-71
2023/05/04 13:00:23;;;;;;;0.90;0.90;;;18.20;93.90;;;;;;4991890;28;20473;-71
2023/05/04 13:02:50;;;;;;;0.70;0.70;;;18.20;94.60;;;;;;4999656;28;20489;-72
2023/05/04 13:05:17;;;;;;;1.07;1.07;;;18.10;94.00;;;;;;4991019;28;20495;-71
2023/05/04 13:07:45;;;;;;;0.73;0.73;;;18.10;94.10;;;;;;4991398;28;20462;-72
2023/05/04 13:10:12;;;;;;;0.40;0.40;;;18.10;93.80;;;;;;4991612;28;20571;-73
2023/05/04 13:12:39;;;;;;;0.90;0.90;;;18.20;94.50;;;;;;4991227;28;20470;-71
2023/05/04 13:15:06;;;;;;;0.87;0.87;;;18.40;94.30;;;;;;4990685;28;21244;-74
2023/05/04 13:17:33;;;;;;;2.67;1.00;;;18.40;94.10;;;;;;4991457;28;20458;-71
2023/05/04 13:20:03;;;;;;;0.80;0.80;;;18.30;93.00;;;;;;4991832;28;20845;-72
2023/05/04 13:22:31;;;;;;;4.07;0.90;;;18.20;93.60;;;;;;4991663;28;20462;-75
2023/05/04 13:24:59;;;;;;;6.03;1.20;;;18.20;93.60;;;;;;4990843;28;20467;-74
2023/05/04 13:27:26;;;;;;;1.60;0.60;;;18.20;93.60;;;;;;4991876;28;20459;-74
2023/05/04 13:29:53;;;;;;;0.80;0.80;;;18.20;93.90;;;;;;4991579;28;20970;-71
2023/05/04 13:32:20;;;;;;;1.80;1.03;;;18.30;93.50;;;;;;4992515;28;20500;-71
2023/05/04 13:34:47;;;;;;;0.40;0.40;;;18.40;93.30;;;;;;4990851;28;20501;-71
2023/05/04 13:37:17;;;;;;;0.70;0.70;;;18.50;93.10;;;;;;4991531;28;20517;-71
2023/05/04 13:39:44;;;;;;;0.53;0.50;;;18.70;93.40;;;;;;4990743;28;20466;-71
2023/05/04 13:42:12;;;;;;;1.07;0.70;;;18.60;93.30;;;;;;4990788;28;20551;-72
2023/05/04 13:44:43;;;;;;;3.60;1.20;;;18.70;93.30;;;;;;4990629;28;20475;-71
2023/05/04 13:47:11;;;;;;;0.80;0.80;;;18.70;92.90;;;;;;4991967;28;20545;-71
2023/05/04 13:49:38;;;;;;;0.83;0.83;;;18.60;93.00;;;;;;4991813;28;20935;-72
2023/05/04 13:52:05;;;;;;;2.57;0.70;;;18.60;93.00;;;;;;4991657;28;20494;-73
2023/05/04 13:54:32;;;;;;;0.43;0.43;;;18.70;93.10;;;;;;4990542;28;20463;-71
2023/05/04 13:56:59;;;;;;;6.73;1.20;;;18.80;93.20;;;;;;4991235;28;20490;-72
2023/05/04 13:59:28;;;;;;;0.70;0.70;;;18.80;93.00;;;;;;4991918;28;20464;-72
2023/05/04 14:01:54;;;;;;;1.10;1.10;;;18.80;92.70;;;;;;5001381;28;20458;-72
2023/05/04 14:04:21;;;;;;;1.30;1.30;;;18.80;92.40;;;;;;4996596;28;20494;-72
2023/05/04 14:06:48;;;;;;;1.33;1.13;;;18.90;92.70;;;;;;4991370;28;20487;-72
2023/05/04 14:09:15;;;;;;;0.40;0.40;;;18.90;92.20;;;;;;4991219;28;20466;-74
2023/05/04 14:11:42;;;;;;;0.70;0.70;;;19.00;92.70;;;;;;4991054;28;20490;-74
2023/05/04 14:14:08;;;;;;;0.90;0.90;;;19.00;92.80;;;;;;4990853;28;20474;-72
2023/05/04 14:16:36;;;;;;;1.13;1.13;;;19.10;92.50;;;;;;4991595;28;20491;-75
2023/05/04 14:19:03;;;;;;;0.60;0.60;;;19.20;92.90;;;;;;4991549;28;20473;-72
2023/05/04 14:21:30;;;;;;;0.40;0.40;;;19.20;92.40;;;;;;4991512;28;20463;-72
2023/05/04 14:23:57;;;;;;;1.17;0.53;;;19.20;92.20;;;;;;4990969;28;20466;-71
2023/05/04 14:26:23;;;;;;;1.20;1.20;;;19.10;91.90;;;;;;4993167;28;20972;-74
2023/05/04 14:28:50;;;;;;;0.63;0.63;;;18.90;91.30;;;;;;4994985;28;20497;-71
2023/05/04 14:31:17;;;;;;;0.80;0.80;;;18.80;91.70;;;;;;4995117;28;20500;-71
2023/05/04 14:33:45;;;;;;;0.50;0.50;;;18.80;92.10;;;;;;4994999;28;20819;-72
2023/05/04 14:36:12;;;;;;;0.40;0.40;;;18.70;92.00;;;;;;4994927;28;20924;-73
2023/05/04 14:38:39;;;;;;;2.93;0.80;;;18.80;92.70;;;;;;4994996;28;20870;-72
2023/05/04 14:41:07;;;;;;;1.53;0.80;;;18.80;92.50;;;;;;4995625;28;20513;-73
2023/05/04 14:43:34;;;;;;;3.10;1.37;;;18.80;92.00;;;;;;4994328;28;20477;-72
2023/05/04 14:46:01;;;;;;;0.67;0.67;;;18.80;91.80;;;;;;4995245;28;20491;-72
2023/05/04 14:48:28;;;;;;;0.60;0.60;;;18.80;92.60;;;;;;4996231;28;20557;-73
2023/05/04 14:50:57;;;;;;;0.57;0.57;;;18.70;92.10;;;;;;4996128;28;20967;-73
2023/05/04 14:53:23;;;;;;;1.00;0.83;;;18.70;92.40;;;;;;4994150;28;20463;-72
2023/05/04 14:55:50;;;;;;;0.80;0.80;;;18.60;93.10;;;;;;4996930;28;20851;-74
2023/05/04 14:58:18;;;;;;;6.83;0.97;;;18.70;92.00;;;;;;4995826;28;20467;-72
2023/05/04 15:00:45;;;;;;;0.50;0.50;;;18.60;91.50;;;;;;4996010;28;20470;-72
2023/05/04 15:03:12;;;;;;;0.53;0.53;;;18.60;92.00;;;;;;5014735;28;20839;-72
2023/05/04 15:05:39;;;;;;;0.63;0.63;;;18.70;91.90;;;;;;5014102;28;20493;-73
2023/05/04 15:08:07;;;;;;;5.10;0.50;;;18.80;92.40;;;;;;5013832;28;20472;-72
2023/05/04 15:10:33;;;;;;;0.63;0.63;;;18.80;92.10;;;;;;5014625;28;20535;-72
2023/05/04 15:13:02;;;;;;;0.77;0.77;;;18.90;92.40;;;;;;5013494;28;20737;-72
2023/05/04 15:15:28;;;;;;;0.97;0.97;;;19.00;92.20;;;;;;5013078;28;20494;-71
2023/05/04 15:17:55;;;;;;;0.90;0.90;;;19.00;91.80;;;;;;5013638;28;20473;-73
2023/05/04 15:20:22;;;;;;;0.90;0.90;;;18.90;91.60;;;;;;5013660;28;20609;-71
2023/05/04 15:22:50;;;;;;;0.97;0.97;;;19.00;91.70;;;;;;5013334;28;20462;-72
2023/05/04 15:25:22;;;;;;;0.60;0.60;;;19.20;92.10;;;;;;5013296;28;20508;-72
2023/05/04 15:27:48;;;;;;;0.63;0.63;;;19.30;91.60;;;;;;5012874;28;20457;-72
2023/05/04 15:30:16;;;;;;;0.87;0.87;;;19.50;91.90;;;;;;5013188;28;20458;-73
2023/05/04 15:32:42;;;;;;;0.80;0.80;;;19.50;91.30;;;;;;5013464;28;20608;-72
2023/05/04 15:35:09;;;;;;;0.83;0.83;;;19.50;91.10;;;;;;5012378;28;20482;-73
2023/05/04 15:37:36;;;;;;;5.20;0.80;;;19.50;91.30;;;;;;5013120;28;20462;-73
2023/05/04 15:40:04;;;;;;;0.60;0.60;;;19.30;91.40;;;;;;5013430;28;20558;-71
2023/05/04 15:42:32;;;;;;;1.73;0.83;;;19.20;91.20;;;;;;5013412;28;20780;-72
2023/05/04 15:44:58;;;;;;;1.00;1.00;;;19.10;92.10;;;;;;5012534;28;20466;-72
2023/05/04 15:47:25;;;;;;;0.70;0.70;;;18.90;91.70;;;;;;5013237;28;20465;-75
2023/05/04 15:49:52;;;;;;;2.93;0.73;;;18.90;91.80;;;;;;5012558;28;20893;-72
2023/05/04 15:52:19;;;;;;;0.73;0.73;;;18.80;91.60;;;;;;5012587;28;20482;-71
2023/05/04 15:54:46;;;;;;;0.80;0.80;;;18.80;91.70;;;;;;5011733;28;20466;-72
2023/05/04 15:57:13;;;;;;;1.03;1.03;;;18.80;91.90;;;;;;5012107;28;20969;-70
2023/05/04 15:59:41;;;;;;;1.67;1.57;;;18.80;91.40;;;;;;5012437;28;20552;-70
2023/05/04 16:02:08;;;;;;;2.87;0.60;;;18.90;92.10;;;;;;5010696;28;20833;-71
2023/05/04 16:04:35;;;;;;;1.50;0.90;;;19.00;91.70;;;;;;5012112;28;20542;-69
2023/05/04 16:07:02;;;;;;;1.00;1.00;;;19.10;91.70;;;;;;5012393;28;20556;-71
2023/05/04 16:09:30;;;;;;;2.10;0.73;;;19.10;91.90;;;;;;5012155;28;20580;-70
2023/05/04 16:11:56;;;;;;;0.90;0.90;;;19.00;91.80;;;;;;5011732;28;20878;-70
2023/05/04 16:14:23;;;;;;;0.70;0.70;;;18.90;91.60;;;;;;5011630;28;20476;-69
2023/05/04 16:16:51;;;;;;;1.80;0.60;;;18.80;90.80;;;;;;5012558;28;20524;-71
2023/05/04 16:19:18;;;;;;;0.83;0.83;;;18.60;91.00;;;;;;5011981;28;20466;-70
2023/05/04 16:21:45;;;;;;;0.80;0.80;;;18.60;90.60;;;;;;5012804;28;20458;-72
2023/05/04 16:24:12;;;;;;;0.70;0.70;;;18.60;91.30;;;;;;5011210;28;20552;-71
2023/05/04 16:26:39;;;;;;;0.93;0.93;;;18.60;90.80;;;;;;5011361;28;20482;-73
2023/05/04 16:29:06;;;;;;;0.80;0.80;;;18.50;91.20;;;;;;5011947;28;20899;-69
2023/05/04 16:31:33;;;;;;;0.80;0.80;;;18.50;91.60;;;;;;5011850;28;20512;-69
2023/05/04 16:34:01;;;;;;;0.63;0.63;;;18.40;91.60;;;;;;5011641;28;20466;-71
2023/05/04 16:36:28;;;;;;;0.77;0.77;;;18.40;91.80;;;;;;5011858;28;21016;-69
2023/05/04 16:38:54;;;;;;;1.40;0.70;;;18.30;92.00;;;;;;5011635;28;20466;-69
2023/05/04 16:41:21;;;;;;;0.80;0.80;;;18.30;92.10;;;;;;5012419;28;20957;-70
2023/05/04 16:43:48;;;;;;;1.07;1.07;;;18.30;91.90;;;;;;5011515;28;20462;-70
2023/05/04 16:46:15;;;;;;;1.10;1.10;;;18.20;91.70;;;;;;5011658;28;20485;-70
2023/05/04 16:48:42;;;;;;;0.33;0.33;;;18.20;92.10;;;;;;5011346;28;20461;-70
2023/05/04 16:51:10;;;;;;;2.00;0.83;;;18.20;91.60;;;;;;5012220;28;20466;-70